Terminal Aerodrome Forecast
Issued by NWS

Home | Current Version | Previous Version | Text Only | Print | Product List | Glossary On
Versions: 1 2 3 4 5 6 7 8 9 10 11 12 13 14 15 16 17
725
FTUS41 KPBZ 232335
TAFHLG
TAF
KHLG 232335Z 2400/2424 13004KT P6SM BKN050
     FM240400 12004KT P6SM VCSH BKN050
     FM241200 11004KT P6SM BKN025
     FM242000 12009KT P6SM -SHRA OVC015=

USA.gov is the U.S. government's official web portal to all federal, state and local government web resources and services.